UKV5141 ENSR-ENTC

Flight info

Callsign UKV5141
Flight time 0h 33m
Altitude 8000
Route HTK DCT TRO
Aircraft K100/L-SDGRY/S

Departure

Time 2026-05-05 19:51
Airport Sørkjosen Airport (ENSR)

Arrival

Time 2026-05-05 20:24
Airport Tromsø Airport (ENTC)
Time Latitude Longitude Altitude Speed Heading
2026-05-05 19:44 69.78550 20.95839 16 ft 0 kts 237°
2026-05-05 19:46 69.78557 20.95831 16 ft 4 kts
2026-05-05 19:46 69.78583 20.95851 16 ft 0 kts 44°
2026-05-05 19:46 69.78586 20.95873 16 ft 3 kts 68°
2026-05-05 19:47 69.78590 20.95900 16 ft 2 kts 67°
2026-05-05 19:47 69.78604 20.95968 18 ft 5 kts 54°
2026-05-05 19:47 69.78661 20.95986 17 ft 15 kts 341°
2026-05-05 19:47 69.78772 20.95831 18 ft 18 kts 333°
2026-05-05 19:48 69.78892 20.95656 20 ft 20 kts 332°
2026-05-05 19:48 69.79021 20.95467 12 ft 18 kts 332°
2026-05-05 19:48 69.79090 20.95383 8 ft 5 kts 342°
2026-05-05 19:48 69.79123 20.95353 9 ft 4 kts 63°
2026-05-05 19:49 69.79123 20.95361 9 ft 0 kts 88°
2026-05-05 19:49 69.79122 20.95365 9 ft 1 kts 139°
2026-05-05 19:49 69.79094 20.95388 8 ft 0 kts 167°
2026-05-05 19:49 69.79093 20.95389 8 ft 0 kts 168°
2026-05-05 19:50 69.79070 20.95411 8 ft 8 kts 156°
2026-05-05 19:50 69.78958 20.95580 15 ft 46 kts 154°
2026-05-05 19:50 69.78470 20.96308 97 ft 100 kts 157°
2026-05-05 19:50 69.77903 20.97525 471 ft 105 kts 122°
2026-05-05 19:51 69.77778 20.99499 966 ft 100 kts 85°
2026-05-05 19:51 69.77890 21.01625 1321 ft 106 kts 75°
2026-05-05 19:51 69.78477 21.02870 1629 ft 125 kts 18°
2026-05-05 19:51 69.79420 21.03261 1746 ft 145 kts
2026-05-05 19:52 69.80447 21.03080 1917 ft 150 kts 359°
2026-05-05 19:52 69.81512 21.02930 2126 ft 156 kts 358°
2026-05-05 19:52 69.82587 21.02651 2460 ft 154 kts 355°
2026-05-05 19:52 69.83646 21.02381 2798 ft 153 kts 356°
2026-05-05 19:53 69.84704 21.02142 3147 ft 152 kts 357°
2026-05-05 19:53 69.85726 21.01900 3621 ft 144 kts 356°
2026-05-05 19:53 69.86688 21.01678 4110 ft 137 kts 357°
2026-05-05 19:53 69.87623 21.01461 4605 ft 134 kts 357°
2026-05-05 19:54 69.88539 21.01250 5099 ft 130 kts 357°
2026-05-05 19:54 69.89447 21.01035 5602 ft 128 kts 358°
2026-05-05 19:54 69.90311 21.00834 6083 ft 126 kts 358°
2026-05-05 19:54 69.91178 21.00382 6527 ft 132 kts 336°
2026-05-05 19:55 69.91880 20.98539 6896 ft 142 kts 303°
2026-05-05 19:55 69.92117 20.95736 7264 ft 148 kts 267°
2026-05-05 19:55 69.91854 20.92823 7631 ft 151 kts 253°
2026-05-05 19:55 69.91546 20.89901 7980 ft 154 kts 254°
2026-05-05 19:56 69.91217 20.86731 7998 ft 172 kts 254°
2026-05-05 19:56 69.90859 20.83331 8003 ft 179 kts 253°
2026-05-05 19:56 69.90489 20.79834 8004 ft 182 kts 255°
2026-05-05 19:56 69.90205 20.76226 8006 ft 184 kts 258°
2026-05-05 19:57 69.89930 20.72586 8006 ft 185 kts 258°
2026-05-05 19:57 69.89727 20.70143 8007 ft 185 kts 254°
2026-05-05 19:57 69.89168 20.65452 8007 ft 185 kts 251°
2026-05-05 19:57 69.88775 20.61939 8004 ft 179 kts 253°
2026-05-05 19:58 69.88393 20.58412 8005 ft 183 kts 253°
2026-05-05 19:58 69.88013 20.54914 8006 ft 185 kts 253°
2026-05-05 19:58 69.87618 20.51300 8007 ft 186 kts 253°
2026-05-05 19:58 69.87225 20.47722 8007 ft 187 kts 253°
2026-05-05 19:59 69.86837 20.44169 8008 ft 187 kts 253°
2026-05-05 19:59 69.86438 20.40524 8008 ft 187 kts 253°
2026-05-05 19:59 69.86041 20.36927 8008 ft 187 kts 253°
2026-05-05 19:59 69.85644 20.33338 8009 ft 188 kts 252°
2026-05-05 20:00 69.85245 20.29731 8006 ft 188 kts 252°
2026-05-05 20:00 69.84856 20.26221 8006 ft 187 kts 252°
2026-05-05 20:00 69.84449 20.22560 8006 ft 187 kts 252°
2026-05-05 20:00 69.84057 20.19028 8008 ft 186 kts 252°
2026-05-05 20:01 69.83659 20.15455 8009 ft 187 kts 252°
2026-05-05 20:01 69.83259 20.11860 8009 ft 187 kts 252°
2026-05-05 20:01 69.82858 20.08275 8007 ft 187 kts 252°
2026-05-05 20:01 69.82457 20.04697 8008 ft 187 kts 252°
2026-05-05 20:02 69.82055 20.01122 8008 ft 187 kts 252°
2026-05-05 20:02 69.81653 19.97551 8008 ft 187 kts 252°
2026-05-05 20:02 69.81244 19.93930 8008 ft 187 kts 252°
2026-05-05 20:02 69.80846 19.90405 8011 ft 186 kts 252°
2026-05-05 20:03 69.80442 19.86843 8011 ft 186 kts 252°
2026-05-05 20:03 69.80036 19.83280 8011 ft 187 kts 252°
2026-05-05 20:03 69.79630 19.79713 8011 ft 187 kts 252°
2026-05-05 20:03 69.79223 19.76151 8011 ft 187 kts 252°
2026-05-05 20:04 69.78815 19.72585 8011 ft 187 kts 252°
2026-05-05 20:04 69.78406 19.69021 8011 ft 187 kts 252°
2026-05-05 20:04 69.77996 19.65446 8010 ft 187 kts 252°
2026-05-05 20:04 69.77586 19.61895 8022 ft 187 kts 252°
2026-05-05 20:05 69.77181 19.58399 8022 ft 186 kts 252°
2026-05-05 20:05 69.76775 19.54870 8022 ft 185 kts 252°
2026-05-05 20:05 69.76369 19.51350 8022 ft 184 kts 252°
2026-05-05 20:05 69.75962 19.47843 8021 ft 185 kts 252°
2026-05-05 20:06 69.75550 19.44344 8020 ft 184 kts 252°
2026-05-05 20:06 69.75138 19.40822 7929 ft 188 kts 252°
2026-05-05 20:06 69.74735 19.37341 7671 ft 177 kts 252°
2026-05-05 20:06 69.74352 19.34072 7414 ft 168 kts 252°
2026-05-05 20:07 69.73981 19.30925 7156 ft 163 kts 252°
2026-05-05 20:07 69.73621 19.27852 6901 ft 160 kts 252°
2026-05-05 20:07 69.73262 19.24798 6585 ft 162 kts 252°
2026-05-05 20:07 69.72899 19.21714 6208 ft 162 kts 252°
2026-05-05 20:08 69.72529 19.18614 5835 ft 164 kts 251°
2026-05-05 20:08 69.72192 19.15747 5555 ft 158 kts 252°
2026-05-05 20:08 69.71845 19.12801 5302 ft 154 kts 251°
2026-05-05 20:08 69.71496 19.09896 5050 ft 151 kts 251°
2026-05-05 20:09 69.71169 19.07157 5002 ft 138 kts 251°
2026-05-05 20:09 69.70958 19.05419 4997 ft 134 kts 252°
2026-05-05 20:09 69.70666 19.02930 4991 ft 127 kts 251°
2026-05-05 20:09 69.70225 19.00554 5006 ft 150 kts 223°
2026-05-05 20:10 69.69228 18.99332 5012 ft 164 kts 185°
2026-05-05 20:10 69.68066 18.99104 5009 ft 170 kts 183°
2026-05-05 20:10 69.66883 18.98820 5011 ft 171 kts 184°
2026-05-05 20:10 69.65704 18.98529 5010 ft 172 kts 184°
2026-05-05 20:11 69.64509 18.98203 5008 ft 171 kts 183°
2026-05-05 20:11 69.63365 18.97955 5009 ft 168 kts 184°
2026-05-05 20:11 69.62175 18.97649 5010 ft 167 kts 184°
2026-05-05 20:11 69.61008 18.97342 5009 ft 168 kts 184°
2026-05-05 20:12 69.59842 18.97064 5009 ft 167 kts 184°
2026-05-05 20:12 69.58682 18.96779 5005 ft 167 kts 184°
2026-05-05 20:12 69.57529 18.96482 5007 ft 168 kts 184°
2026-05-05 20:12 69.56353 18.96184 5006 ft 170 kts 184°
2026-05-05 20:13 69.55195 18.95897 5008 ft 169 kts 184°
2026-05-05 20:13 69.54009 18.95607 5010 ft 169 kts 184°
2026-05-05 20:13 69.52834 18.95316 5010 ft 170 kts 184°
2026-05-05 20:13 69.51658 18.95021 5011 ft 170 kts 184°
2026-05-05 20:14 69.50472 18.94726 5009 ft 171 kts 184°
2026-05-05 20:14 69.49285 18.94434 4998 ft 172 kts 184°
2026-05-05 20:14 69.48090 18.94149 4998 ft 172 kts 183°
2026-05-05 20:14 69.46912 18.93851 4997 ft 168 kts 185°
2026-05-05 20:15 69.45734 18.93556 4997 ft 171 kts 183°
2026-05-05 20:15 69.44557 18.93262 4997 ft 170 kts 184°
2026-05-05 20:15 69.43384 18.92927 4997 ft 169 kts 189°
2026-05-05 20:15 69.42305 18.91590 5001 ft 172 kts 215°
2026-05-05 20:16 69.41472 18.89087 5002 ft 179 kts 239°
2026-05-05 20:16 69.41052 18.85750 5001 ft 181 kts 263°
2026-05-05 20:16 69.41147 18.82207 5001 ft 181 kts 288°
2026-05-05 20:16 69.41737 18.79094 5000 ft 179 kts 311°
2026-05-05 20:17 69.42709 18.76947 5000 ft 177 kts 335°
2026-05-05 20:17 69.43860 18.75873 5000 ft 172 kts 346°
2026-05-05 20:17 69.44976 18.74688 5001 ft 171 kts 335°
2026-05-05 20:17 69.46117 18.74318 5002 ft 168 kts 17°
2026-05-05 20:18 69.47014 18.76313 5000 ft 166 kts 51°
2026-05-05 20:18 69.47909 18.78444 4999 ft 170 kts 31°
2026-05-05 20:18 69.49057 18.79217 4882 ft 175 kts
2026-05-05 20:18 69.50238 18.79765 4473 ft 168 kts 12°
2026-05-05 20:19 69.51402 18.80446 4056 ft 173 kts 13°
2026-05-05 20:19 69.52542 18.81230 3618 ft 166 kts 15°
2026-05-05 20:19 69.53639 18.81990 3206 ft 153 kts 14°
2026-05-05 20:19 69.54660 18.82656 2967 ft 153 kts 13°
2026-05-05 20:20 69.55714 18.83301 2689 ft 155 kts 13°
2026-05-05 20:20 69.56796 18.83990 2578 ft 156 kts 13°
2026-05-05 20:20 69.57754 18.84662 2400 ft 126 kts 14°
2026-05-05 20:20 69.58574 18.85254 2265 ft 119 kts 14°
2026-05-05 20:21 69.59366 18.85792 2065 ft 116 kts 15°
2026-05-05 20:21 69.60149 18.86333 1816 ft 116 kts 13°
2026-05-05 20:21 69.60943 18.86846 1575 ft 112 kts 14°
2026-05-05 20:21 69.61644 18.87314 1403 ft 114 kts 13°
2026-05-05 20:22 69.62390 18.87802 1237 ft 104 kts 14°
2026-05-05 20:22 69.63119 18.88306 1080 ft 113 kts 14°
2026-05-05 20:22 69.63880 18.88832 972 ft 113 kts 15°
2026-05-05 20:22 69.64658 18.89401 788 ft 117 kts 15°
2026-05-05 20:23 69.65386 18.89888 579 ft 93 kts 13°
2026-05-05 20:23 69.65952 18.90252 487 ft 68 kts 14°
2026-05-05 20:23 69.66402 18.90561 310 ft 69 kts 12°
2026-05-05 20:23 69.66904 18.90916 214 ft 77 kts 14°
2026-05-05 20:24 69.67386 18.91256 64 ft 65 kts 10°
2026-05-05 20:24 69.67764 18.91505 34 ft 35 kts 13°
2026-05-05 20:24 69.67984 18.91653 33 ft 28 kts 16°
2026-05-05 20:24 69.68072 18.91460 32 ft 15 kts 281°
2026-05-05 20:25 69.68074 18.91245 32 ft 11 kts 261°
2026-05-05 20:25 69.68085 18.91015 32 ft 8 kts 277°
2026-05-05 20:25 69.68087 18.90988 32 ft 0 kts 283°
2026-05-05 20:25 69.68090 18.90949 32 ft 0 kts 283°